Main page
METAR-TAF:

METAR-TAF

Airports :

Bridgeport Municipal Airport

Bridgeport, Texas, United States

latitude: 33-10-31N, longitude: 097-49-42W, elevation: 853 ft

Current weather observation

The report was made 31 minutes ago, at 17:15 UTC
Wind 5 mph from the East/Northeast
Temperature 84°F
Humidity 62%
Pressure 30.23 in. Hg
Visibility: 10 miles
Scattered clouds at a height of 2600 ft
Scattered clouds at a height of 4400 ft
Scattered clouds at a height of 8000 ft

METAR: KXBP 201715Z AUTO 07004KT 10SM SCT026 SCT044 SCT080 29/21 A3023 RMK AO2 T02910212

Time: 12:46 (17:46 UTC)


TAF: missing

Weather observations and forecasts of more than 4000 airports (METAR and TAF reports).

The available stations are represented by yellow and red dots on the map.

Hover mouse over dot to see the name of the station.

Then click to see weather observations and forecasts.

To change the map : click on the green buttons with a black cross to zoom in, on the green button with a dash to zoom out, or on the green arrows for adjacent maps.


METAR-TAF: